sensor_id;sensor_type;location;lat;lon;timestamp;temperature;humidity
70475;DHT22;57944;48.722;9.316;2023-01-24T00:00:05;2.90;99.90
70475;DHT22;57944;48.722;9.316;2023-01-24T00:02:39;2.80;99.90
70475;DHT22;57944;48.722;9.316;2023-01-24T00:05:12;2.80;99.90
70475;DHT22;57944;48.722;9.316;2023-01-24T00:07:42;2.90;99.90
70475;DHT22;57944;48.722;9.316;2023-01-24T00:10:13;2.80;99.90
70475;DHT22;57944;48.722;9.316;2023-01-24T00:12:43;2.80;99.90
70475;DHT22;57944;48.722;9.316;2023-01-24T00:15:13;2.80;99.90
70475;DHT22;57944;48.722;9.316;2023-01-24T00:17:43;2.90;99.90
70475;DHT22;57944;48.722;9.316;2023-01-24T00:20:17;2.80;99.90
70475;DHT22;57944;48.722;9.316;2023-01-24T00:22:47;2.80;99.90
70475;DHT22;57944;48.722;9.316;2023-01-24T00:25:17;2.90;99.90
70475;DHT22;57944;48.722;9.316;2023-01-24T00:27:48;2.80;99.90
70475;DHT22;57944;48.722;9.316;2023-01-24T00:30:19;2.90;99.90
70475;DHT22;57944;48.722;9.316;2023-01-24T00:32:49;3.00;99.90
70475;DHT22;57944;48.722;9.316;2023-01-24T00:35:22;2.90;99.90
70475;DHT22;57944;48.722;9.316;2023-01-24T00:37:52;2.80;99.90
70475;DHT22;57944;48.722;9.316;2023-01-24T00:40:22;2.70;99.90
70475;DHT22;57944;48.722;9.316;2023-01-24T00:42:53;2.70;99.90
70475;DHT22;57944;48.722;9.316;2023-01-24T00:45:24;2.60;99.90
70475;DHT22;57944;48.722;9.316;2023-01-24T00:47:54;2.60;99.90
70475;DHT22;57944;48.722;9.316;2023-01-24T00:50:27;2.70;99.90
70475;DHT22;57944;48.722;9.316;2023-01-24T00:52:58;2.70;99.90
70475;DHT22;57944;48.722;9.316;2023-01-24T00:55:29;2.80;99.90
70475;DHT22;57944;48.722;9.316;2023-01-24T00:58:00;2.70;99.90
70475;DHT22;57944;48.722;9.316;2023-01-24T01:00:30;2.70;99.90
70475;DHT22;57944;48.722;9.316;2023-01-24T01:03:01;2.60;99.90
70475;DHT22;57944;48.722;9.316;2023-01-24T01:05:34;2.50;99.90
70475;DHT22;57944;48.722;9.316;2023-01-24T01:08:05;2.60;99.90
70475;DHT22;57944;48.722;9.316;2023-01-24T01:10:35;2.60;99.90
70475;DHT22;57944;48.722;9.316;2023-01-24T01:13:06;2.70;99.90
70475;DHT22;57944;48.722;9.316;2023-01-24T01:15:38;2.70;99.90
70475;DHT22;57944;48.722;9.316;2023-01-24T01:18:09;2.70;99.90
70475;DHT22;57944;48.722;9.316;2023-01-24T01:20:48;2.70;99.90
70475;DHT22;57944;48.722;9.316;2023-01-24T01:23:19;2.80;99.90
70475;DHT22;57944;48.722;9.316;2023-01-24T01:25:50;2.90;99.90
70475;DHT22;57944;48.722;9.316;2023-01-24T01:28:20;3.00;99.90
70475;DHT22;57944;48.722;9.316;2023-01-24T01:30:52;3.00;99.90
70475;DHT22;57944;48.722;9.316;2023-01-24T01:33:23;3.00;99.90
70475;DHT22;57944;48.722;9.316;2023-01-24T01:35:57;3.00;99.90
70475;DHT22;57944;48.722;9.316;2023-01-24T01:38:27;2.90;99.90
70475;DHT22;57944;48.722;9.316;2023-01-24T01:40:58;3.00;99.90
70475;DHT22;57944;48.722;9.316;2023-01-24T01:43:29;2.80;99.90
70475;DHT22;57944;48.722;9.316;2023-01-24T01:46:07;2.80;99.90
70475;DHT22;57944;48.722;9.316;2023-01-24T01:48:49;2.80;99.90
70475;DHT22;57944;48.722;9.316;2023-01-24T01:51:26;3.00;99.90
70475;DHT22;57944;48.722;9.316;2023-01-24T01:54:04;3.10;99.90
70475;DHT22;57944;48.722;9.316;2023-01-24T01:56:42;3.00;99.90
70475;DHT22;57944;48.722;9.316;2023-01-24T01:59:19;3.10;99.90
70475;DHT22;57944;48.722;9.316;2023-01-24T02:01:55;3.00;99.90
70475;DHT22;57944;48.722;9.316;2023-01-24T02:04:33;3.00;99.90
70475;DHT22;57944;48.722;9.316;2023-01-24T02:07:10;2.90;99.90
70475;DHT22;57944;48.722;9.316;2023-01-24T02:09:44;3.00;99.90
70475;DHT22;57944;48.722;9.316;2023-01-24T02:12:19;3.00;99.90
70475;DHT22;57944;48.722;9.316;2023-01-24T02:14:54;3.00;99.90
70475;DHT22;57944;48.722;9.316;2023-01-24T02:17:40;2.90;99.90
70475;DHT22;57944;48.722;9.316;2023-01-24T02:20:34;3.10;99.90
70475;DHT22;57944;48.722;9.316;2023-01-24T02:23:18;3.20;99.90
70475;DHT22;57944;48.722;9.316;2023-01-24T02:26:07;3.10;99.90
70475;DHT22;57944;48.722;9.316;2023-01-24T02:28:39;3.00;99.90
70475;DHT22;57944;48.722;9.316;2023-01-24T02:31:14;2.90;99.90
70475;DHT22;57944;48.722;9.316;2023-01-24T02:33:44;2.80;99.90
70475;DHT22;57944;48.722;9.316;2023-01-24T02:36:20;2.80;99.90
70475;DHT22;57944;48.722;9.316;2023-01-24T02:38:58;2.80;99.90
70475;DHT22;57944;48.722;9.316;2023-01-24T02:41:38;2.80;99.90
70475;DHT22;57944;48.722;9.316;2023-01-24T02:44:18;2.90;99.90
70475;DHT22;57944;48.722;9.316;2023-01-24T02:46:52;3.00;99.90
70475;DHT22;57944;48.722;9.316;2023-01-24T02:49:23;2.90;99.90
70475;DHT22;57944;48.722;9.316;2023-01-24T02:51:53;3.00;99.90
70475;DHT22;57944;48.722;9.316;2023-01-24T02:54:38;3.00;99.90
70475;DHT22;57944;48.722;9.316;2023-01-24T02:57:11;3.10;99.90
70475;DHT22;57944;48.722;9.316;2023-01-24T02:59:54;3.10;99.90
70475;DHT22;57944;48.722;9.316;2023-01-24T03:02:25;3.00;99.90
70475;DHT22;57944;48.722;9.316;2023-01-24T03:04:55;3.00;99.90
70475;DHT22;57944;48.722;9.316;2023-01-24T03:07:25;3.00;99.90
70475;DHT22;57944;48.722;9.316;2023-01-24T03:10:10;2.80;99.90
70475;DHT22;57944;48.722;9.316;2023-01-24T03:12:45;3.00;99.90
70475;DHT22;57944;48.722;9.316;2023-01-24T03:15:28;2.90;99.90
70475;DHT22;57944;48.722;9.316;2023-01-24T03:18:12;2.80;99.90
70475;DHT22;57944;48.722;9.316;2023-01-24T03:20:54;2.80;99.90
70475;DHT22;57944;48.722;9.316;2023-01-24T03:23:37;2.80;99.90
70475;DHT22;57944;48.722;9.316;2023-01-24T03:26:20;2.80;99.90
70475;DHT22;57944;48.722;9.316;2023-01-24T03:29:06;2.90;99.90
70475;DHT22;57944;48.722;9.316;2023-01-24T03:31:49;2.80;99.90
70475;DHT22;57944;48.722;9.316;2023-01-24T03:34:32;2.90;99.90
70475;DHT22;57944;48.722;9.316;2023-01-24T03:37:15;2.80;99.90
70475;DHT22;57944;48.722;9.316;2023-01-24T03:40:10;2.70;99.90
70475;DHT22;57944;48.722;9.316;2023-01-24T03:42:40;2.60;99.90
70475;DHT22;57944;48.722;9.316;2023-01-24T03:45:24;2.60;99.90
70475;DHT22;57944;48.722;9.316;2023-01-24T03:47:57;2.70;99.90
70475;DHT22;57944;48.722;9.316;2023-01-24T03:50:31;2.70;99.90
70475;DHT22;57944;48.722;9.316;2023-01-24T03:53:16;2.60;99.90
70475;DHT22;57944;48.722;9.316;2023-01-24T03:55:51;2.80;99.90
70475;DHT22;57944;48.722;9.316;2023-01-24T03:58:25;2.70;99.90
70475;DHT22;57944;48.722;9.316;2023-01-24T04:00:58;2.70;99.90
70475;DHT22;57944;48.722;9.316;2023-01-24T04:03:56;2.70;99.90
70475;DHT22;57944;48.722;9.316;2023-01-24T04:06:27;2.70;99.90
70475;DHT22;57944;48.722;9.316;2023-01-24T04:08:58;2.70;99.90
70475;DHT22;57944;48.722;9.316;2023-01-24T04:11:29;2.70;99.90
70475;DHT22;57944;48.722;9.316;2023-01-24T04:14:19;2.60;99.90
70475;DHT22;57944;48.722;9.316;2023-01-24T04:17:05;2.50;99.90
70475;DHT22;57944;48.722;9.316;2023-01-24T04:19:42;2.50;99.90
70475;DHT22;57944;48.722;9.316;2023-01-24T04:22:14;2.50;99.90
70475;DHT22;57944;48.722;9.316;2023-01-24T04:24:45;2.60;99.90
70475;DHT22;57944;48.722;9.316;2023-01-24T04:27:16;2.60;99.90
70475;DHT22;57944;48.722;9.316;2023-01-24T04:30:05;2.60;99.90
70475;DHT22;57944;48.722;9.316;2023-01-24T04:32:42;2.70;99.90
70475;DHT22;57944;48.722;9.316;2023-01-24T04:35:20;2.70;99.90
70475;DHT22;57944;48.722;9.316;2023-01-24T04:38:00;2.80;99.90
70475;DHT22;57944;48.722;9.316;2023-01-24T04:40:42;2.70;99.90
70475;DHT22;57944;48.722;9.316;2023-01-24T04:43:14;2.60;99.90
70475;DHT22;57944;48.722;9.316;2023-01-24T04:45:47;2.70;99.90
70475;DHT22;57944;48.722;9.316;2023-01-24T04:48:22;2.80;99.90
70475;DHT22;57944;48.722;9.316;2023-01-24T04:50:57;3.00;99.90
70475;DHT22;57944;48.722;9.316;2023-01-24T04:53:31;3.00;99.90
70475;DHT22;57944;48.722;9.316;2023-01-24T04:56:03;2.90;99.90
70475;DHT22;57944;48.722;9.316;2023-01-24T04:58:34;3.00;99.90
70475;DHT22;57944;48.722;9.316;2023-01-24T05:01:05;3.00;99.90
70475;DHT22;57944;48.722;9.316;2023-01-24T05:03:48;3.10;99.90
70475;DHT22;57944;48.722;9.316;2023-01-24T05:06:19;3.00;99.90
70475;DHT22;57944;48.722;9.316;2023-01-24T05:08:51;3.10;99.90
70475;DHT22;57944;48.722;9.316;2023-01-24T05:11:26;3.00;99.90
70475;DHT22;57944;48.722;9.316;2023-01-24T05:13:59;3.00;99.90
70475;DHT22;57944;48.722;9.316;2023-01-24T05:16:30;2.90;99.90
70475;DHT22;57944;48.722;9.316;2023-01-24T05:19:02;2.90;99.90
70475;DHT22;57944;48.722;9.316;2023-01-24T05:21:34;3.00;99.90
70475;DHT22;57944;48.722;9.316;2023-01-24T05:24:05;2.90;99.90
70475;DHT22;57944;48.722;9.316;2023-01-24T05:26:37;2.90;99.90
70475;DHT22;57944;48.722;9.316;2023-01-24T05:29:09;2.70;99.90
70475;DHT22;57944;48.722;9.316;2023-01-24T05:31:39;2.80;99.90
70475;DHT22;57944;48.722;9.316;2023-01-24T05:34:12;2.90;99.90
70475;DHT22;57944;48.722;9.316;2023-01-24T05:36:43;2.90;99.90
70475;DHT22;57944;48.722;9.316;2023-01-24T05:39:14;3.00;99.90
70475;DHT22;57944;48.722;9.316;2023-01-24T05:41:45;2.90;99.90
70475;DHT22;57944;48.722;9.316;2023-01-24T05:44:18;2.90;99.90
70475;DHT22;57944;48.722;9.316;2023-01-24T05:46:48;3.00;99.90
70475;DHT22;57944;48.722;9.316;2023-01-24T05:49:25;2.90;99.90
70475;DHT22;57944;48.722;9.316;2023-01-24T05:51:55;3.10;99.90
70475;DHT22;57944;48.722;9.316;2023-01-24T05:54:44;3.10;99.90
70475;DHT22;57944;48.722;9.316;2023-01-24T05:57:24;3.00;99.90
70475;DHT22;57944;48.722;9.316;2023-01-24T06:00:18;3.00;99.90
70475;DHT22;57944;48.722;9.316;2023-01-24T06:03:09;2.90;99.90
70475;DHT22;57944;48.722;9.316;2023-01-24T06:05:45;3.00;99.90
70475;DHT22;57944;48.722;9.316;2023-01-24T06:08:17;3.10;99.90
70475;DHT22;57944;48.722;9.316;2023-01-24T06:10:48;3.10;99.90
70475;DHT22;57944;48.722;9.316;2023-01-24T06:13:21;3.20;99.90
70475;DHT22;57944;48.722;9.316;2023-01-24T06:15:51;3.10;99.90
70475;DHT22;57944;48.722;9.316;2023-01-24T06:18:30;3.20;99.90
70475;DHT22;57944;48.722;9.316;2023-01-24T06:21:08;3.20;99.90
70475;DHT22;57944;48.722;9.316;2023-01-24T06:23:48;3.20;99.90
70475;DHT22;57944;48.722;9.316;2023-01-24T06:26:20;3.40;99.90
70475;DHT22;57944;48.722;9.316;2023-01-24T06:28:51;3.50;99.90
70475;DHT22;57944;48.722;9.316;2023-01-24T06:31:29;3.10;99.90
70475;DHT22;57944;48.722;9.316;2023-01-24T06:34:23;3.10;99.90
70475;DHT22;57944;48.722;9.316;2023-01-24T06:37:26;3.20;99.90
70475;DHT22;57944;48.722;9.316;2023-01-24T06:40:11;3.30;99.90
70475;DHT22;57944;48.722;9.316;2023-01-24T06:42:44;3.30;99.90
70475;DHT22;57944;48.722;9.316;2023-01-24T06:45:15;3.20;99.90
70475;DHT22;57944;48.722;9.316;2023-01-24T06:47:47;3.10;99.90
70475;DHT22;57944;48.722;9.316;2023-01-24T06:50:19;3.10;99.90
70475;DHT22;57944;48.722;9.316;2023-01-24T06:52:55;3.10;99.90
70475;DHT22;57944;48.722;9.316;2023-01-24T06:55:25;3.10;99.90
70475;DHT22;57944;48.722;9.316;2023-01-24T06:57:56;3.10;99.90
70475;DHT22;57944;48.722;9.316;2023-01-24T07:00:27;3.00;99.90
70475;DHT22;57944;48.722;9.316;2023-01-24T07:02:59;3.10;99.90
70475;DHT22;57944;48.722;9.316;2023-01-24T07:05:29;3.10;99.90
70475;DHT22;57944;48.722;9.316;2023-01-24T07:08:03;3.00;99.90
70475;DHT22;57944;48.722;9.316;2023-01-24T07:10:35;3.00;99.90
70475;DHT22;57944;48.722;9.316;2023-01-24T07:13:06;2.90;99.90
70475;DHT22;57944;48.722;9.316;2023-01-24T07:15:37;2.90;99.90
70475;DHT22;57944;48.722;9.316;2023-01-24T07:18:09;2.80;99.90
70475;DHT22;57944;48.722;9.316;2023-01-24T07:20:42;2.80;99.90
70475;DHT22;57944;48.722;9.316;2023-01-24T07:23:21;2.80;99.90
70475;DHT22;57944;48.722;9.316;2023-01-24T07:25:53;2.80;99.90
70475;DHT22;57944;48.722;9.316;2023-01-24T07:28:24;2.80;99.90
70475;DHT22;57944;48.722;9.316;2023-01-24T07:30:55;2.80;99.90
70475;DHT22;57944;48.722;9.316;2023-01-24T07:33:25;2.80;99.90
70475;DHT22;57944;48.722;9.316;2023-01-24T07:35:55;2.80;99.90
70475;DHT22;57944;48.722;9.316;2023-01-24T07:38:28;2.80;99.90
70475;DHT22;57944;48.722;9.316;2023-01-24T07:40:59;2.80;99.90
70475;DHT22;57944;48.722;9.316;2023-01-24T07:43:39;2.90;99.90
70475;DHT22;57944;48.722;9.316;2023-01-24T07:46:09;3.10;99.90
70475;DHT22;57944;48.722;9.316;2023-01-24T07:48:40;3.10;99.90
70475;DHT22;57944;48.722;9.316;2023-01-24T07:51:13;3.20;99.90
70475;DHT22;57944;48.722;9.316;2023-01-24T07:53:47;3.10;99.90
70475;DHT22;57944;48.722;9.316;2023-01-24T07:56:18;3.10;99.90
70475;DHT22;57944;48.722;9.316;2023-01-24T07:58:52;3.10;99.90
70475;DHT22;57944;48.722;9.316;2023-01-24T08:01:23;3.10;99.90
70475;DHT22;57944;48.722;9.316;2023-01-24T08:03:55;3.10;99.90
70475;DHT22;57944;48.722;9.316;2023-01-24T08:06:25;3.10;99.90
70475;DHT22;57944;48.722;9.316;2023-01-24T08:08:59;3.20;99.90
70475;DHT22;57944;48.722;9.316;2023-01-24T08:11:29;3.20;99.90
70475;DHT22;57944;48.722;9.316;2023-01-24T08:14:00;3.20;99.90
70475;DHT22;57944;48.722;9.316;2023-01-24T08:16:30;3.30;99.90
70475;DHT22;57944;48.722;9.316;2023-01-24T08:19:01;3.40;99.90
70475;DHT22;57944;48.722;9.316;2023-01-24T08:21:31;3.30;99.90
70475;DHT22;57944;48.722;9.316;2023-01-24T08:24:06;3.50;99.90
70475;DHT22;57944;48.722;9.316;2023-01-24T08:26:37;3.50;99.90
70475;DHT22;57944;48.722;9.316;2023-01-24T08:29:09;3.60;99.90
70475;DHT22;57944;48.722;9.316;2023-01-24T08:31:39;3.50;99.90
70475;DHT22;57944;48.722;9.316;2023-01-24T08:34:10;3.50;99.90
70475;DHT22;57944;48.722;9.316;2023-01-24T08:36:40;3.50;99.90
70475;DHT22;57944;48.722;9.316;2023-01-24T08:39:14;3.50;99.90
70475;DHT22;57944;48.722;9.316;2023-01-24T08:41:54;3.70;99.90
70475;DHT22;57944;48.722;9.316;2023-01-24T08:44:25;3.70;99.90
70475;DHT22;57944;48.722;9.316;2023-01-24T08:46:55;3.80;99.90
70475;DHT22;57944;48.722;9.316;2023-01-24T08:49:25;3.90;99.90
70475;DHT22;57944;48.722;9.316;2023-01-24T08:51:57;3.90;99.90
70475;DHT22;57944;48.722;9.316;2023-01-24T08:54:31;3.90;99.90
70475;DHT22;57944;48.722;9.316;2023-01-24T08:57:03;3.80;99.90
70475;DHT22;57944;48.722;9.316;2023-01-24T08:59:34;3.70;99.90
70475;DHT22;57944;48.722;9.316;2023-01-24T09:02:04;4.00;99.90
70475;DHT22;57944;48.722;9.316;2023-01-24T09:04:35;4.10;99.90
70475;DHT22;57944;48.722;9.316;2023-01-24T09:07:06;4.00;99.90
70475;DHT22;57944;48.722;9.316;2023-01-24T09:09:40;3.90;99.90
70475;DHT22;57944;48.722;9.316;2023-01-24T09:12:11;3.80;99.90
70475;DHT22;57944;48.722;9.316;2023-01-24T09:14:41;3.80;99.90
70475;DHT22;57944;48.722;9.316;2023-01-24T09:17:13;3.90;99.90
70475;DHT22;57944;48.722;9.316;2023-01-24T09:19:43;3.90;99.90
70475;DHT22;57944;48.722;9.316;2023-01-24T09:22:14;4.00;99.90
70475;DHT22;57944;48.722;9.316;2023-01-24T09:24:49;4.00;99.90
70475;DHT22;57944;48.722;9.316;2023-01-24T09:27:19;4.00;99.90
70475;DHT22;57944;48.722;9.316;2023-01-24T09:29:50;4.00;99.90
70475;DHT22;57944;48.722;9.316;2023-01-24T09:32:20;4.20;99.90
70475;DHT22;57944;48.722;9.316;2023-01-24T09:34:50;4.20;99.90
70475;DHT22;57944;48.722;9.316;2023-01-24T09:37:21;4.20;99.90
70475;DHT22;57944;48.722;9.316;2023-01-24T09:39:55;4.20;99.90
70475;DHT22;57944;48.722;9.316;2023-01-24T09:42:32;4.30;99.90
70475;DHT22;57944;48.722;9.316;2023-01-24T09:45:16;4.50;99.90
70475;DHT22;57944;48.722;9.316;2023-01-24T09:47:52;4.70;99.90
70475;DHT22;57944;48.722;9.316;2023-01-24T09:50:30;4.70;99.90
70475;DHT22;57944;48.722;9.316;2023-01-24T09:53:14;4.80;99.90
70475;DHT22;57944;48.722;9.316;2023-01-24T09:55:53;4.50;99.90
70475;DHT22;57944;48.722;9.316;2023-01-24T09:58:29;4.40;99.90
70475;DHT22;57944;48.722;9.316;2023-01-24T10:01:02;4.30;99.90
70475;DHT22;57944;48.722;9.316;2023-01-24T10:03:36;4.40;99.90
70475;DHT22;57944;48.722;9.316;2023-01-24T10:06:12;4.60;99.90
70475;DHT22;57944;48.722;9.316;2023-01-24T10:08:50;4.70;99.90
70475;DHT22;57944;48.722;9.316;2023-01-24T10:11:43;4.60;99.90
70475;DHT22;57944;48.722;9.316;2023-01-24T10:14:40;4.60;99.90
70475;DHT22;57944;48.722;9.316;2023-01-24T10:17:34;4.30;99.90
70475;DHT22;57944;48.722;9.316;2023-01-24T10:20:30;4.20;99.90
70475;DHT22;57944;48.722;9.316;2023-01-24T10:23:12;4.30;99.90
70475;DHT22;57944;48.722;9.316;2023-01-24T10:25:54;4.40;99.90
70475;DHT22;57944;48.722;9.316;2023-01-24T10:28:35;4.20;99.90
70475;DHT22;57944;48.722;9.316;2023-01-24T10:31:11;4.30;99.90
70475;DHT22;57944;48.722;9.316;2023-01-24T10:33:46;4.30;99.90
70475;DHT22;57944;48.722;9.316;2023-01-24T10:36:24;4.20;99.90
70475;DHT22;57944;48.722;9.316;2023-01-24T10:39:00;4.20;99.90
70475;DHT22;57944;48.722;9.316;2023-01-24T10:41:31;4.30;99.90
70475;DHT22;57944;48.722;9.316;2023-01-24T10:44:10;4.30;99.90
70475;DHT22;57944;48.722;9.316;2023-01-24T10:47:17;4.30;99.90
70475;DHT22;57944;48.722;9.316;2023-01-24T10:50:08;4.30;99.90
70475;DHT22;57944;48.722;9.316;2023-01-24T10:52:39;4.40;99.90
70475;DHT22;57944;48.722;9.316;2023-01-24T10:55:26;4.50;99.90
70475;DHT22;57944;48.722;9.316;2023-01-24T10:58:14;4.60;99.90
70475;DHT22;57944;48.722;9.316;2023-01-24T11:00:58;4.70;99.90
70475;DHT22;57944;48.722;9.316;2023-01-24T11:03:36;4.70;99.90
70475;DHT22;57944;48.722;9.316;2023-01-24T11:06:22;4.60;99.90
70475;DHT22;57944;48.722;9.316;2023-01-24T11:08:55;4.60;99.90
70475;DHT22;57944;48.722;9.316;2023-01-24T11:11:33;4.50;99.90
70475;DHT22;57944;48.722;9.316;2023-01-24T11:14:03;4.50;99.90
70475;DHT22;57944;48.722;9.316;2023-01-24T11:16:41;4.50;99.90
70475;DHT22;57944;48.722;9.316;2023-01-24T11:19:26;4.60;99.90
70475;DHT22;57944;48.722;9.316;2023-01-24T11:22:00;4.50;99.90
70475;DHT22;57944;48.722;9.316;2023-01-24T11:24:42;4.60;99.90
70475;DHT22;57944;48.722;9.316;2023-01-24T11:27:14;4.60;99.90
70475;DHT22;57944;48.722;9.316;2023-01-24T11:30:04;4.60;99.90
70475;DHT22;57944;48.722;9.316;2023-01-24T11:32:47;4.80;99.90
70475;DHT22;57944;48.722;9.316;2023-01-24T11:35:33;4.80;99.90
70475;DHT22;57944;48.722;9.316;2023-01-24T11:38:26;4.80;99.90
70475;DHT22;57944;48.722;9.316;2023-01-24T11:41:10;5.00;99.90
70475;DHT22;57944;48.722;9.316;2023-01-24T11:44:19;5.10;99.90
70475;DHT22;57944;48.722;9.316;2023-01-24T11:47:09;5.20;99.90
70475;DHT22;57944;48.722;9.316;2023-01-24T11:53:26;5.00;99.90
70475;DHT22;57944;48.722;9.316;2023-01-24T11:56:22;4.90;99.90
70475;DHT22;57944;48.722;9.316;2023-01-24T11:59:17;4.90;99.90
70475;DHT22;57944;48.722;9.316;2023-01-24T12:02:10;4.90;99.90
70475;DHT22;57944;48.722;9.316;2023-01-24T12:05:09;4.80;99.90
70475;DHT22;57944;48.722;9.316;2023-01-24T12:07:59;5.00;99.90
70475;DHT22;57944;48.722;9.316;2023-01-24T12:10:53;4.90;99.90
70475;DHT22;57944;48.722;9.316;2023-01-24T12:14:00;4.90;99.90
70475;DHT22;57944;48.722;9.316;2023-01-24T12:16:51;5.00;99.90
70475;DHT22;57944;48.722;9.316;2023-01-24T12:19:51;5.10;99.90
70475;DHT22;57944;48.722;9.316;2023-01-24T12:22:59;5.20;99.90
70475;DHT22;57944;48.722;9.316;2023-01-24T12:25:42;5.00;99.90
70475;DHT22;57944;48.722;9.316;2023-01-24T12:28:25;5.00;99.90
70475;DHT22;57944;48.722;9.316;2023-01-24T12:31:04;5.00;99.90
70475;DHT22;57944;48.722;9.316;2023-01-24T12:33:42;5.00;99.90
70475;DHT22;57944;48.722;9.316;2023-01-24T12:36:28;5.10;99.90
70475;DHT22;57944;48.722;9.316;2023-01-24T12:39:12;5.30;99.90
70475;DHT22;57944;48.722;9.316;2023-01-24T12:41:54;5.40;99.90
70475;DHT22;57944;48.722;9.316;2023-01-24T12:44:31;5.50;99.90
70475;DHT22;57944;48.722;9.316;2023-01-24T12:47:16;5.60;99.90
70475;DHT22;57944;48.722;9.316;2023-01-24T12:50:03;5.40;99.90
70475;DHT22;57944;48.722;9.316;2023-01-24T12:52:46;5.40;99.90
70475;DHT22;57944;48.722;9.316;2023-01-24T12:55:32;5.40;99.90
70475;DHT22;57944;48.722;9.316;2023-01-24T12:58:14;5.30;99.90
70475;DHT22;57944;48.722;9.316;2023-01-24T13:00:57;5.20;99.90
70475;DHT22;57944;48.722;9.316;2023-01-24T13:03:50;5.30;99.90
70475;DHT22;57944;48.722;9.316;2023-01-24T13:06:37;5.30;99.90
70475;DHT22;57944;48.722;9.316;2023-01-24T13:09:25;5.10;99.90
70475;DHT22;57944;48.722;9.316;2023-01-24T13:12:04;5.10;99.90
70475;DHT22;57944;48.722;9.316;2023-01-24T13:14:46;5.10;99.90
70475;DHT22;57944;48.722;9.316;2023-01-24T13:17:38;5.20;99.90
70475;DHT22;57944;48.722;9.316;2023-01-24T13:20:47;5.10;99.90
70475;DHT22;57944;48.722;9.316;2023-01-24T13:23:38;4.90;99.90
70475;DHT22;57944;48.722;9.316;2023-01-24T13:29:59;5.00;99.90
70475;DHT22;57944;48.722;9.316;2023-01-24T13:32:50;5.30;99.90
70475;DHT22;57944;48.722;9.316;2023-01-24T13:35:23;5.20;99.90
70475;DHT22;57944;48.722;9.316;2023-01-24T13:38:01;5.10;99.90
70475;DHT22;57944;48.722;9.316;2023-01-24T13:40:33;5.20;99.90
70475;DHT22;57944;48.722;9.316;2023-01-24T13:50:12;5.10;99.90
70475;DHT22;57944;48.722;9.316;2023-01-24T13:52:51;5.00;99.90
70475;DHT22;57944;48.722;9.316;2023-01-24T13:58:33;4.90;99.90
70475;DHT22;57944;48.722;9.316;2023-01-24T14:01:14;4.80;99.90
70475;DHT22;57944;48.722;9.316;2023-01-24T14:03:57;4.70;99.90
70475;DHT22;57944;48.722;9.316;2023-01-24T14:06:40;4.50;99.90
70475;DHT22;57944;48.722;9.316;2023-01-24T14:09:20;4.60;99.90
70475;DHT22;57944;48.722;9.316;2023-01-24T14:11:57;4.50;99.90
70475;DHT22;57944;48.722;9.316;2023-01-24T14:15:03;4.60;99.90
70475;DHT22;57944;48.722;9.316;2023-01-24T14:17:48;4.60;99.90
70475;DHT22;57944;48.722;9.316;2023-01-24T14:20:33;4.40;99.90
70475;DHT22;57944;48.722;9.316;2023-01-24T14:23:19;4.40;99.90
70475;DHT22;57944;48.722;9.316;2023-01-24T14:25:53;4.40;99.90
70475;DHT22;57944;48.722;9.316;2023-01-24T14:28:33;4.40;99.90
70475;DHT22;57944;48.722;9.316;2023-01-24T14:31:20;4.40;99.90
70475;DHT22;57944;48.722;9.316;2023-01-24T14:33:57;4.40;99.90
70475;DHT22;57944;48.722;9.316;2023-01-24T14:36:36;4.40;99.90
70475;DHT22;57944;48.722;9.316;2023-01-24T14:39:18;4.40;99.90
70475;DHT22;57944;48.722;9.316;2023-01-24T14:41:52;4.40;99.90
70475;DHT22;57944;48.722;9.316;2023-01-24T14:44:26;4.20;99.90
70475;DHT22;57944;48.722;9.316;2023-01-24T14:47:03;4.30;99.90
70475;DHT22;57944;48.722;9.316;2023-01-24T14:49:41;4.30;99.90
70475;DHT22;57944;48.722;9.316;2023-01-24T14:52:17;4.20;99.90
70475;DHT22;57944;48.722;9.316;2023-01-24T14:54:52;4.20;99.90
70475;DHT22;57944;48.722;9.316;2023-01-24T14:57:27;4.10;99.90
70475;DHT22;57944;48.722;9.316;2023-01-24T15:00:06;4.10;99.90
70475;DHT22;57944;48.722;9.316;2023-01-24T15:02:55;4.00;99.90
70475;DHT22;57944;48.722;9.316;2023-01-24T15:05:29;4.00;99.90
70475;DHT22;57944;48.722;9.316;2023-01-24T15:08:03;4.00;99.90
70475;DHT22;57944;48.722;9.316;2023-01-24T15:10:37;4.10;99.90
70475;DHT22;57944;48.722;9.316;2023-01-24T15:13:17;4.00;99.90
70475;DHT22;57944;48.722;9.316;2023-01-24T15:15:49;4.00;99.90
70475;DHT22;57944;48.722;9.316;2023-01-24T15:18:40;4.00;99.90
70475;DHT22;57944;48.722;9.316;2023-01-24T15:21:21;4.10;99.90
70475;DHT22;57944;48.722;9.316;2023-01-24T15:23:56;4.20;99.90
70475;DHT22;57944;48.722;9.316;2023-01-24T15:26:36;4.10;99.90
70475;DHT22;57944;48.722;9.316;2023-01-24T15:29:39;4.10;99.90
70475;DHT22;57944;48.722;9.316;2023-01-24T15:32:22;4.00;99.90
70475;DHT22;57944;48.722;9.316;2023-01-24T15:35:26;4.10;99.90
70475;DHT22;57944;48.722;9.316;2023-01-24T15:38:22;4.10;99.90
70475;DHT22;57944;48.722;9.316;2023-01-24T15:41:02;4.10;99.90
70475;DHT22;57944;48.722;9.316;2023-01-24T15:43:55;4.20;99.90
70475;DHT22;57944;48.722;9.316;2023-01-24T15:46:31;4.00;99.90
70475;DHT22;57944;48.722;9.316;2023-01-24T15:49:24;3.90;99.90
70475;DHT22;57944;48.722;9.316;2023-01-24T15:52:18;4.00;99.90
70475;DHT22;57944;48.722;9.316;2023-01-24T15:54:54;4.10;99.90
70475;DHT22;57944;48.722;9.316;2023-01-24T15:57:29;4.00;99.90
70475;DHT22;57944;48.722;9.316;2023-01-24T16:00:21;4.00;99.90
70475;DHT22;57944;48.722;9.316;2023-01-24T16:02:53;4.00;99.90
70475;DHT22;57944;48.722;9.316;2023-01-24T16:05:23;3.90;99.90
70475;DHT22;57944;48.722;9.316;2023-01-24T16:07:58;3.90;99.90
70475;DHT22;57944;48.722;9.316;2023-01-24T16:10:29;4.00;99.90
70475;DHT22;57944;48.722;9.316;2023-01-24T16:12:59;3.90;99.90
70475;DHT22;57944;48.722;9.316;2023-01-24T16:15:30;4.00;99.90
70475;DHT22;57944;48.722;9.316;2023-01-24T16:18:01;4.00;99.90
70475;DHT22;57944;48.722;9.316;2023-01-24T16:20:32;3.80;99.90
70475;DHT22;57944;48.722;9.316;2023-01-24T16:23:06;3.70;99.90
70475;DHT22;57944;48.722;9.316;2023-01-24T16:25:37;3.80;99.90
70475;DHT22;57944;48.722;9.316;2023-01-24T16:28:17;3.80;99.90
70475;DHT22;57944;48.722;9.316;2023-01-24T16:30:50;3.80;99.90
70475;DHT22;57944;48.722;9.316;2023-01-24T16:33:22;3.70;99.90
70475;DHT22;57944;48.722;9.316;2023-01-24T16:35:52;3.70;99.90
70475;DHT22;57944;48.722;9.316;2023-01-24T16:38:25;3.60;99.90
70475;DHT22;57944;48.722;9.316;2023-01-24T16:40:55;3.60;99.90
70475;DHT22;57944;48.722;9.316;2023-01-24T16:43:25;3.60;99.90
70475;DHT22;57944;48.722;9.316;2023-01-24T16:45:56;3.50;99.90
70475;DHT22;57944;48.722;9.316;2023-01-24T16:48:29;3.60;99.90
70475;DHT22;57944;48.722;9.316;2023-01-24T16:51:00;3.60;99.90
70475;DHT22;57944;48.722;9.316;2023-01-24T16:53:33;3.50;99.90
70475;DHT22;57944;48.722;9.316;2023-01-24T16:56:04;3.50;99.90
70475;DHT22;57944;48.722;9.316;2023-01-24T16:58:37;3.50;99.90
70475;DHT22;57944;48.722;9.316;2023-01-24T17:01:08;3.50;99.90
70475;DHT22;57944;48.722;9.316;2023-01-24T17:03:39;3.60;99.90
70475;DHT22;57944;48.722;9.316;2023-01-24T17:06:12;3.60;99.90